sensor_id;sensor_type;location;lat;lon;timestamp;P1;durP1;ratioP1;P2;durP2;ratioP2
28822;SDS011;15961;54.678;9.110;2022-08-21T00:01:12;16.50;;;8.30;;
28822;SDS011;15961;54.678;9.110;2022-08-21T00:03:40;12.68;;;8.85;;
28822;SDS011;15961;54.678;9.110;2022-08-21T00:06:06;19.38;;;10.52;;
28822;SDS011;15961;54.678;9.110;2022-08-21T00:08:31;28.70;;;12.50;;
28822;SDS011;15961;54.678;9.110;2022-08-21T00:10:57;41.65;;;14.55;;
28822;SDS011;15961;54.678;9.110;2022-08-21T00:13:23;37.45;;;14.35;;
28822;SDS011;15961;54.678;9.110;2022-08-21T00:15:49;40.30;;;15.40;;
28822;SDS011;15961;54.678;9.110;2022-08-21T00:18:15;27.98;;;13.57;;
28822;SDS011;15961;54.678;9.110;2022-08-21T00:20:41;25.77;;;12.43;;
28822;SDS011;15961;54.678;9.110;2022-08-21T00:23:08;30.13;;;14.02;;
28822;SDS011;15961;54.678;9.110;2022-08-21T00:25:34;26.90;;;10.82;;
28822;SDS011;15961;54.678;9.110;2022-08-21T00:28:00;30.50;;;14.25;;
28822;SDS011;15961;54.678;9.110;2022-08-21T00:30:27;19.55;;;11.73;;
28822;SDS011;15961;54.678;9.110;2022-08-21T00:32:54;20.23;;;12.02;;
28822;SDS011;15961;54.678;9.110;2022-08-21T00:35:24;28.88;;;13.70;;
28822;SDS011;15961;54.678;9.110;2022-08-21T00:37:51;26.17;;;14.20;;
28822;SDS011;15961;54.678;9.110;2022-08-21T00:40:19;25.08;;;12.40;;
28822;SDS011;15961;54.678;9.110;2022-08-21T00:42:48;32.83;;;13.75;;
28822;SDS011;15961;54.678;9.110;2022-08-21T00:45:15;36.28;;;15.65;;
28822;SDS011;15961;54.678;9.110;2022-08-21T00:47:40;49.45;;;17.35;;
28822;SDS011;15961;54.678;9.110;2022-08-21T00:50:07;28.38;;;16.08;;
28822;SDS011;15961;54.678;9.110;2022-08-21T00:52:34;32.03;;;14.93;;
28822;SDS011;15961;54.678;9.110;2022-08-21T00:55:02;29.83;;;15.63;;
28822;SDS011;15961;54.678;9.110;2022-08-21T00:57:34;29.10;;;14.82;;
28822;SDS011;15961;54.678;9.110;2022-08-21T01:00:06;30.17;;;13.18;;
28822;SDS011;15961;54.678;9.110;2022-08-21T01:02:34;25.55;;;11.63;;
28822;SDS011;15961;54.678;9.110;2022-08-21T01:04:59;26.88;;;13.60;;
28822;SDS011;15961;54.678;9.110;2022-08-21T01:07:25;30.23;;;12.60;;
28822;SDS011;15961;54.678;9.110;2022-08-21T01:09:51;20.70;;;12.32;;
28822;SDS011;15961;54.678;9.110;2022-08-21T01:12:17;24.95;;;12.75;;
28822;SDS011;15961;54.678;9.110;2022-08-21T01:14:43;21.50;;;11.13;;
28822;SDS011;15961;54.678;9.110;2022-08-21T01:17:10;26.38;;;12.40;;
28822;SDS011;15961;54.678;9.110;2022-08-21T01:19:38;23.88;;;13.40;;
28822;SDS011;15961;54.678;9.110;2022-08-21T01:22:04;26.88;;;12.32;;
28822;SDS011;15961;54.678;9.110;2022-08-21T01:24:29;19.95;;;9.82;;
28822;SDS011;15961;54.678;9.110;2022-08-21T01:26:56;14.63;;;9.85;;
28822;SDS011;15961;54.678;9.110;2022-08-21T01:31:59;18.15;;;10.07;;
28822;SDS011;15961;54.678;9.110;2022-08-21T01:34:29;25.20;;;9.88;;
28822;SDS011;15961;54.678;9.110;2022-08-21T01:36:55;20.23;;;10.07;;
28822;SDS011;15961;54.678;9.110;2022-08-21T01:39:21;21.83;;;10.50;;
28822;SDS011;15961;54.678;9.110;2022-08-21T01:41:47;21.42;;;10.55;;
28822;SDS011;15961;54.678;9.110;2022-08-21T01:44:12;18.10;;;10.07;;
28822;SDS011;15961;54.678;9.110;2022-08-21T01:46:38;18.63;;;9.77;;
28822;SDS011;15961;54.678;9.110;2022-08-21T01:49:04;18.55;;;10.13;;
28822;SDS011;15961;54.678;9.110;2022-08-21T01:51:30;21.63;;;9.88;;
28822;SDS011;15961;54.678;9.110;2022-08-21T01:53:55;17.77;;;10.00;;
28822;SDS011;15961;54.678;9.110;2022-08-21T01:56:21;22.52;;;12.00;;
28822;SDS011;15961;54.678;9.110;2022-08-21T01:58:47;17.60;;;11.18;;
28822;SDS011;15961;54.678;9.110;2022-08-21T02:01:13;18.83;;;12.40;;
28822;SDS011;15961;54.678;9.110;2022-08-21T02:03:39;17.77;;;9.90;;
28822;SDS011;15961;54.678;9.110;2022-08-21T02:06:06;18.52;;;10.88;;
28822;SDS011;15961;54.678;9.110;2022-08-21T02:08:33;14.48;;;11.30;;
28822;SDS011;15961;54.678;9.110;2022-08-21T02:10:59;22.70;;;11.13;;
28822;SDS011;15961;54.678;9.110;2022-08-21T02:13:25;24.90;;;12.93;;
28822;SDS011;15961;54.678;9.110;2022-08-21T02:15:51;25.85;;;12.20;;
28822;SDS011;15961;54.678;9.110;2022-08-21T02:18:16;20.38;;;11.52;;
28822;SDS011;15961;54.678;9.110;2022-08-21T02:20:44;17.88;;;11.25;;
28822;SDS011;15961;54.678;9.110;2022-08-21T02:23:11;20.42;;;10.07;;
28822;SDS011;15961;54.678;9.110;2022-08-21T02:25:38;19.95;;;10.38;;
28822;SDS011;15961;54.678;9.110;2022-08-21T02:28:06;20.88;;;11.40;;
28822;SDS011;15961;54.678;9.110;2022-08-21T02:30:35;22.80;;;10.50;;
28822;SDS011;15961;54.678;9.110;2022-08-21T02:33:03;19.33;;;10.13;;
28822;SDS011;15961;54.678;9.110;2022-08-21T02:35:30;19.90;;;11.10;;
28822;SDS011;15961;54.678;9.110;2022-08-21T02:38:00;14.07;;;9.70;;
28822;SDS011;15961;54.678;9.110;2022-08-21T02:40:30;23.33;;;11.27;;
28822;SDS011;15961;54.678;9.110;2022-08-21T02:42:58;25.58;;;11.77;;
28822;SDS011;15961;54.678;9.110;2022-08-21T02:45:26;30.60;;;13.85;;
28822;SDS011;15961;54.678;9.110;2022-08-21T02:47:54;26.00;;;11.40;;
28822;SDS011;15961;54.678;9.110;2022-08-21T02:50:25;18.45;;;11.63;;
28822;SDS011;15961;54.678;9.110;2022-08-21T02:52:55;22.80;;;11.93;;
28822;SDS011;15961;54.678;9.110;2022-08-21T02:55:22;16.05;;;11.02;;
28822;SDS011;15961;54.678;9.110;2022-08-21T02:57:51;18.13;;;11.57;;
28822;SDS011;15961;54.678;9.110;2022-08-21T03:00:17;26.65;;;11.00;;
28822;SDS011;15961;54.678;9.110;2022-08-21T03:02:44;22.52;;;11.90;;
28822;SDS011;15961;54.678;9.110;2022-08-21T03:05:11;20.08;;;11.07;;
28822;SDS011;15961;54.678;9.110;2022-08-21T03:07:38;27.17;;;13.02;;
28822;SDS011;15961;54.678;9.110;2022-08-21T03:10:04;34.97;;;15.55;;
28822;SDS011;15961;54.678;9.110;2022-08-21T03:12:31;24.90;;;13.02;;
28822;SDS011;15961;54.678;9.110;2022-08-21T03:14:57;19.35;;;13.38;;
28822;SDS011;15961;54.678;9.110;2022-08-21T03:17:23;25.90;;;13.50;;
28822;SDS011;15961;54.678;9.110;2022-08-21T03:19:49;22.83;;;13.63;;
28822;SDS011;15961;54.678;9.110;2022-08-21T03:22:15;17.17;;;11.70;;
28822;SDS011;15961;54.678;9.110;2022-08-21T03:24:40;24.05;;;15.70;;
28822;SDS011;15961;54.678;9.110;2022-08-21T03:27:06;24.70;;;12.48;;
28822;SDS011;15961;54.678;9.110;2022-08-21T03:29:31;20.58;;;12.52;;
28822;SDS011;15961;54.678;9.110;2022-08-21T03:31:57;22.83;;;12.68;;
28822;SDS011;15961;54.678;9.110;2022-08-21T03:34:22;21.13;;;13.43;;
28822;SDS011;15961;54.678;9.110;2022-08-21T03:36:48;35.03;;;15.77;;
28822;SDS011;15961;54.678;9.110;2022-08-21T03:39:15;22.33;;;14.10;;
28822;SDS011;15961;54.678;9.110;2022-08-21T03:41:41;26.88;;;14.77;;
28822;SDS011;15961;54.678;9.110;2022-08-21T03:44:07;34.15;;;17.52;;
28822;SDS011;15961;54.678;9.110;2022-08-21T03:46:32;45.05;;;18.73;;
28822;SDS011;15961;54.678;9.110;2022-08-21T03:48:59;29.40;;;15.10;;
28822;SDS011;15961;54.678;9.110;2022-08-21T03:51:25;45.20;;;18.38;;
28822;SDS011;15961;54.678;9.110;2022-08-21T03:53:50;28.35;;;18.05;;
28822;SDS011;15961;54.678;9.110;2022-08-21T03:56:16;38.83;;;18.60;;
28822;SDS011;15961;54.678;9.110;2022-08-21T03:58:42;28.60;;;17.92;;
28822;SDS011;15961;54.678;9.110;2022-08-21T04:01:08;28.30;;;15.65;;
28822;SDS011;15961;54.678;9.110;2022-08-21T04:03:35;24.08;;;13.80;;
28822;SDS011;15961;54.678;9.110;2022-08-21T04:06:01;35.80;;;15.23;;
28822;SDS011;15961;54.678;9.110;2022-08-21T04:08:26;24.70;;;15.43;;
28822;SDS011;15961;54.678;9.110;2022-08-21T04:10:53;29.70;;;13.80;;
28822;SDS011;15961;54.678;9.110;2022-08-21T04:13:21;31.60;;;14.57;;
28822;SDS011;15961;54.678;9.110;2022-08-21T04:15:47;31.52;;;13.57;;
28822;SDS011;15961;54.678;9.110;2022-08-21T04:18:14;20.85;;;11.80;;
28822;SDS011;15961;54.678;9.110;2022-08-21T04:20:40;24.42;;;12.98;;
28822;SDS011;15961;54.678;9.110;2022-08-21T04:23:08;25.98;;;12.20;;
28822;SDS011;15961;54.678;9.110;2022-08-21T04:25:33;25.25;;;13.38;;
28822;SDS011;15961;54.678;9.110;2022-08-21T04:28:00;23.85;;;12.77;;
28822;SDS011;15961;54.678;9.110;2022-08-21T04:30:27;41.90;;;14.57;;
28822;SDS011;15961;54.678;9.110;2022-08-21T04:32:52;31.83;;;15.10;;
28822;SDS011;15961;54.678;9.110;2022-08-21T04:35:19;30.48;;;14.88;;
28822;SDS011;15961;54.678;9.110;2022-08-21T04:37:46;26.40;;;14.00;;
28822;SDS011;15961;54.678;9.110;2022-08-21T04:40:13;24.58;;;13.98;;
28822;SDS011;15961;54.678;9.110;2022-08-21T04:42:49;24.70;;;13.27;;
28822;SDS011;15961;54.678;9.110;2022-08-21T04:45:22;27.80;;;14.93;;
28822;SDS011;15961;54.678;9.110;2022-08-21T04:47:56;26.75;;;15.23;;
28822;SDS011;15961;54.678;9.110;2022-08-21T04:50:37;38.65;;;14.80;;
28822;SDS011;15961;54.678;9.110;2022-08-21T04:53:23;41.72;;;18.33;;
28822;SDS011;15961;54.678;9.110;2022-08-21T04:55:52;38.78;;;18.13;;
28822;SDS011;15961;54.678;9.110;2022-08-21T04:58:20;27.85;;;15.52;;
28822;SDS011;15961;54.678;9.110;2022-08-21T05:00:48;22.95;;;13.43;;
28822;SDS011;15961;54.678;9.110;2022-08-21T05:03:16;35.10;;;16.90;;
28822;SDS011;15961;54.678;9.110;2022-08-21T05:05:42;32.10;;;15.75;;
28822;SDS011;15961;54.678;9.110;2022-08-21T05:08:09;25.95;;;14.27;;
28822;SDS011;15961;54.678;9.110;2022-08-21T05:10:39;32.67;;;16.80;;
28822;SDS011;15961;54.678;9.110;2022-08-21T05:13:05;32.45;;;16.88;;
28822;SDS011;15961;54.678;9.110;2022-08-21T05:15:31;31.50;;;16.13;;
28822;SDS011;15961;54.678;9.110;2022-08-21T05:17:57;39.80;;;16.95;;
28822;SDS011;15961;54.678;9.110;2022-08-21T05:20:23;33.83;;;16.85;;
28822;SDS011;15961;54.678;9.110;2022-08-21T05:22:49;31.98;;;15.85;;
28822;SDS011;15961;54.678;9.110;2022-08-21T05:25:14;39.10;;;16.23;;
28822;SDS011;15961;54.678;9.110;2022-08-21T05:27:41;44.28;;;16.33;;
28822;SDS011;15961;54.678;9.110;2022-08-21T05:30:07;40.00;;;15.55;;
28822;SDS011;15961;54.678;9.110;2022-08-21T05:32:33;32.22;;;15.07;;
28822;SDS011;15961;54.678;9.110;2022-08-21T05:35:00;33.70;;;14.32;;
28822;SDS011;15961;54.678;9.110;2022-08-21T05:37:25;29.50;;;13.13;;
28822;SDS011;15961;54.678;9.110;2022-08-21T05:39:51;30.40;;;13.18;;
28822;SDS011;15961;54.678;9.110;2022-08-21T05:42:16;33.55;;;12.85;;
28822;SDS011;15961;54.678;9.110;2022-08-21T05:44:42;30.23;;;12.13;;
28822;SDS011;15961;54.678;9.110;2022-08-21T05:47:08;40.15;;;11.57;;
28822;SDS011;15961;54.678;9.110;2022-08-21T05:49:35;24.52;;;10.88;;
28822;SDS011;15961;54.678;9.110;2022-08-21T05:52:02;22.25;;;10.68;;
28822;SDS011;15961;54.678;9.110;2022-08-21T05:54:28;19.33;;;9.32;;
28822;SDS011;15961;54.678;9.110;2022-08-21T05:56:54;21.67;;;8.32;;
28822;SDS011;15961;54.678;9.110;2022-08-21T05:59:20;20.85;;;8.02;;
28822;SDS011;15961;54.678;9.110;2022-08-21T06:01:46;18.40;;;8.07;;
28822;SDS011;15961;54.678;9.110;2022-08-21T06:04:12;17.30;;;7.32;;
28822;SDS011;15961;54.678;9.110;2022-08-21T06:06:38;27.80;;;7.90;;
28822;SDS011;15961;54.678;9.110;2022-08-21T06:09:04;16.00;;;5.88;;
28822;SDS011;15961;54.678;9.110;2022-08-21T06:11:31;18.08;;;5.35;;
28822;SDS011;15961;54.678;9.110;2022-08-21T06:13:57;24.30;;;5.10;;
28822;SDS011;15961;54.678;9.110;2022-08-21T06:16:23;34.35;;;5.65;;
28822;SDS011;15961;54.678;9.110;2022-08-21T06:18:49;16.35;;;4.47;;
28822;SDS011;15961;54.678;9.110;2022-08-21T06:21:15;22.10;;;5.20;;
28822;SDS011;15961;54.678;9.110;2022-08-21T06:23:41;16.70;;;4.00;;
28822;SDS011;15961;54.678;9.110;2022-08-21T06:26:07;19.08;;;4.78;;
28822;SDS011;15961;54.678;9.110;2022-08-21T06:28:34;11.73;;;3.78;;
28822;SDS011;15961;54.678;9.110;2022-08-21T06:31:09;10.73;;;4.18;;
28822;SDS011;15961;54.678;9.110;2022-08-21T06:33:35;13.07;;;3.88;;
28822;SDS011;15961;54.678;9.110;2022-08-21T06:36:01;13.00;;;4.05;;
28822;SDS011;15961;54.678;9.110;2022-08-21T06:38:27;11.93;;;3.28;;
28822;SDS011;15961;54.678;9.110;2022-08-21T06:40:52;13.15;;;2.92;;
28822;SDS011;15961;54.678;9.110;2022-08-21T06:43:18;16.38;;;2.92;;
28822;SDS011;15961;54.678;9.110;2022-08-21T06:45:44;13.07;;;2.60;;
28822;SDS011;15961;54.678;9.110;2022-08-21T06:48:09;11.38;;;2.40;;
28822;SDS011;15961;54.678;9.110;2022-08-21T06:50:35;13.82;;;2.40;;
28822;SDS011;15961;54.678;9.110;2022-08-21T06:53:05;20.80;;;4.03;;
28822;SDS011;15961;54.678;9.110;2022-08-21T06:55:33;8.38;;;2.40;;
28822;SDS011;15961;54.678;9.110;2022-08-21T06:57:59;13.18;;;3.75;;
28822;SDS011;15961;54.678;9.110;2022-08-21T07:00:25;9.82;;;2.28;;
28822;SDS011;15961;54.678;9.110;2022-08-21T07:02:51;17.58;;;3.15;;
28822;SDS011;15961;54.678;9.110;2022-08-21T07:05:16;11.43;;;2.60;;
28822;SDS011;15961;54.678;9.110;2022-08-21T07:07:42;10.63;;;2.88;;
28822;SDS011;15961;54.678;9.110;2022-08-21T07:10:08;7.80;;;2.35;;
28822;SDS011;15961;54.678;9.110;2022-08-21T07:12:35;8.60;;;2.95;;
28822;SDS011;15961;54.678;9.110;2022-08-21T07:15:01;7.65;;;2.60;;
28822;SDS011;15961;54.678;9.110;2022-08-21T07:17:26;13.55;;;3.30;;
28822;SDS011;15961;54.678;9.110;2022-08-21T07:19:52;8.82;;;2.40;;
28822;SDS011;15961;54.678;9.110;2022-08-21T07:22:20;18.20;;;2.83;;
28822;SDS011;15961;54.678;9.110;2022-08-21T07:24:46;13.20;;;2.67;;
28822;SDS011;15961;54.678;9.110;2022-08-21T07:27:12;8.02;;;2.70;;
28822;SDS011;15961;54.678;9.110;2022-08-21T07:29:37;16.92;;;3.40;;
28822;SDS011;15961;54.678;9.110;2022-08-21T07:32:03;13.07;;;2.65;;
28822;SDS011;15961;54.678;9.110;2022-08-21T07:34:29;13.90;;;2.47;;
28822;SDS011;15961;54.678;9.110;2022-08-21T07:36:55;12.07;;;2.88;;
28822;SDS011;15961;54.678;9.110;2022-08-21T07:39:21;7.40;;;2.08;;
28822;SDS011;15961;54.678;9.110;2022-08-21T07:41:47;10.98;;;2.90;;
28822;SDS011;15961;54.678;9.110;2022-08-21T07:44:12;13.32;;;2.67;;
28822;SDS011;15961;54.678;9.110;2022-08-21T07:46:38;12.25;;;3.47;;
28822;SDS011;15961;54.678;9.110;2022-08-21T07:49:04;19.20;;;3.38;;
28822;SDS011;15961;54.678;9.110;2022-08-21T07:51:29;15.13;;;3.05;;
28822;SDS011;15961;54.678;9.110;2022-08-21T07:53:55;14.73;;;2.75;;
28822;SDS011;15961;54.678;9.110;2022-08-21T07:56:23;14.48;;;3.10;;
28822;SDS011;15961;54.678;9.110;2022-08-21T07:58:48;7.80;;;2.65;;
28822;SDS011;15961;54.678;9.110;2022-08-21T08:01:14;17.85;;;3.30;;
28822;SDS011;15961;54.678;9.110;2022-08-21T08:03:40;11.00;;;2.22;;
28822;SDS011;15961;54.678;9.110;2022-08-21T08:06:06;10.35;;;2.75;;
28822;SDS011;15961;54.678;9.110;2022-08-21T08:08:33;10.48;;;2.88;;
28822;SDS011;15961;54.678;9.110;2022-08-21T08:10:59;13.50;;;2.35;;
28822;SDS011;15961;54.678;9.110;2022-08-21T08:13:26;11.30;;;3.00;;
28822;SDS011;15961;54.678;9.110;2022-08-21T08:15:52;17.40;;;2.95;;
28822;SDS011;15961;54.678;9.110;2022-08-21T08:18:18;9.35;;;2.42;;
28822;SDS011;15961;54.678;9.110;2022-08-21T08:20:43;10.18;;;2.90;;
28822;SDS011;15961;54.678;9.110;2022-08-21T08:23:10;9.77;;;2.03;;
28822;SDS011;15961;54.678;9.110;2022-08-21T08:25:37;13.45;;;2.25;;
28822;SDS011;15961;54.678;9.110;2022-08-21T08:28:04;17.63;;;2.72;;
28822;SDS011;15961;54.678;9.110;2022-08-21T08:30:30;20.75;;;3.63;;
28822;SDS011;15961;54.678;9.110;2022-08-21T08:32:56;14.60;;;2.88;;
28822;SDS011;15961;54.678;9.110;2022-08-21T08:35:22;12.38;;;2.70;;
28822;SDS011;15961;54.678;9.110;2022-08-21T08:37:49;6.20;;;1.83;;
28822;SDS011;15961;54.678;9.110;2022-08-21T08:40:19;7.88;;;2.15;;
28822;SDS011;15961;54.678;9.110;2022-08-21T08:42:58;16.88;;;2.22;;
28822;SDS011;15961;54.678;9.110;2022-08-21T08:45:24;7.97;;;2.15;;
28822;SDS011;15961;54.678;9.110;2022-08-21T08:48:01;10.40;;;2.50;;
28822;SDS011;15961;54.678;9.110;2022-08-21T08:50:49;6.47;;;1.65;;
28822;SDS011;15961;54.678;9.110;2022-08-21T08:54:06;5.25;;;1.65;;
28822;SDS011;15961;54.678;9.110;2022-08-21T08:56:13;12.80;;;2.92;;
28822;SDS011;15961;54.678;9.110;2022-08-21T08:58:40;10.95;;;2.38;;
28822;SDS011;15961;54.678;9.110;2022-08-21T09:01:14;11.73;;;2.30;;
28822;SDS011;15961;54.678;9.110;2022-08-21T09:03:42;13.13;;;3.05;;
28822;SDS011;15961;54.678;9.110;2022-08-21T09:11:42;9.15;;;1.98;;
28822;SDS011;15961;54.678;9.110;2022-08-21T09:14:28;11.05;;;1.75;;
28822;SDS011;15961;54.678;9.110;2022-08-21T09:20:17;15.52;;;2.58;;
28822;SDS011;15961;54.678;9.110;2022-08-21T09:26:15;7.65;;;2.08;;
28822;SDS011;15961;54.678;9.110;2022-08-21T09:28:43;8.02;;;2.28;;
28822;SDS011;15961;54.678;9.110;2022-08-21T09:31:29;9.98;;;1.85;;
28822;SDS011;15961;54.678;9.110;2022-08-21T09:33:58;8.65;;;1.65;;
28822;SDS011;15961;54.678;9.110;2022-08-21T09:39:03;6.72;;;2.10;;
28822;SDS011;15961;54.678;9.110;2022-08-21T09:41:30;5.57;;;1.92;;
28822;SDS011;15961;54.678;9.110;2022-08-21T09:43:59;11.27;;;2.10;;
28822;SDS011;15961;54.678;9.110;2022-08-21T09:46:26;7.20;;;1.85;;
28822;SDS011;15961;54.678;9.110;2022-08-21T09:48:53;8.32;;;2.33;;
28822;SDS011;15961;54.678;9.110;2022-08-21T09:51:39;8.65;;;1.70;;
28822;SDS011;15961;54.678;9.110;2022-08-21T09:59:44;7.65;;;1.80;;
28822;SDS011;15961;54.678;9.110;2022-08-21T10:04:55;8.35;;;2.80;;
28822;SDS011;15961;54.678;9.110;2022-08-21T10:07:23;8.45;;;2.70;;
28822;SDS011;15961;54.678;9.110;2022-08-21T10:09:58;18.08;;;2.17;;
28822;SDS011;15961;54.678;9.110;2022-08-21T10:20:23;9.32;;;2.33;;
28822;SDS011;15961;54.678;9.110;2022-08-21T10:23:07;17.75;;;3.10;;
28822;SDS011;15961;54.678;9.110;2022-08-21T10:25:58;11.23;;;2.53;;
28822;SDS011;15961;54.678;9.110;2022-08-21T10:30:56;20.60;;;3.15;;
28822;SDS011;15961;54.678;9.110;2022-08-21T10:33:44;19.10;;;3.55;;
28822;SDS011;15961;54.678;9.110;2022-08-21T10:41:38;17.20;;;2.63;;
28822;SDS011;15961;54.678;9.110;2022-08-21T10:49:47;12.75;;;2.90;;
28822;SDS011;15961;54.678;9.110;2022-08-21T10:52:31;16.02;;;3.28;;
28822;SDS011;15961;54.678;9.110;2022-08-21T10:55:19;15.65;;;2.50;;
28822;SDS011;15961;54.678;9.110;2022-08-21T11:00:14;16.52;;;3.25;;
28822;SDS011;15961;54.678;9.110;2022-08-21T11:02:52;19.15;;;3.80;;
28822;SDS011;15961;54.678;9.110;2022-08-21T11:07:56;19.48;;;2.63;;
28822;SDS011;15961;54.678;9.110;2022-08-21T11:10:26;13.82;;;3.40;;
28822;SDS011;15961;54.678;9.110;2022-08-21T11:12:58;20.60;;;3.28;;
28822;SDS011;15961;54.678;9.110;2022-08-21T11:15:39;19.45;;;4.63;;
28822;SDS011;15961;54.678;9.110;2022-08-21T11:20:56;14.90;;;3.80;;
28822;SDS011;15961;54.678;9.110;2022-08-21T11:26:14;15.70;;;2.85;;
28822;SDS011;15961;54.678;9.110;2022-08-21T11:29:16;14.77;;;3.30;;
28822;SDS011;15961;54.678;9.110;2022-08-21T11:32:01;18.90;;;3.00;;
28822;SDS011;15961;54.678;9.110;2022-08-21T11:34:50;17.33;;;3.70;;
28822;SDS011;15961;54.678;9.110;2022-08-21T11:45:42;19.40;;;3.83;;
28822;SDS011;15961;54.678;9.110;2022-08-21T11:51:10;15.43;;;3.65;;
28822;SDS011;15961;54.678;9.110;2022-08-21T11:54:23;19.33;;;3.67;;
28822;SDS011;15961;54.678;9.110;2022-08-21T11:56:35;13.45;;;3.85;;
28822;SDS011;15961;54.678;9.110;2022-08-21T12:01:44;23.45;;;3.58;;
28822;SDS011;15961;54.678;9.110;2022-08-21T12:06:47;17.40;;;3.58;;
28822;SDS011;15961;54.678;9.110;2022-08-21T12:12:03;18.05;;;3.40;;
28822;SDS011;15961;54.678;9.110;2022-08-21T12:14:48;20.10;;;4.07;;
28822;SDS011;15961;54.678;9.110;2022-08-21T12:17:22;27.90;;;4.07;;
28822;SDS011;15961;54.678;9.110;2022-08-21T12:19:59;16.80;;;3.58;;
28822;SDS011;15961;54.678;9.110;2022-08-21T12:22:37;24.02;;;4.10;;
28822;SDS011;15961;54.678;9.110;2022-08-21T12:25:06;15.80;;;4.28;;
28822;SDS011;15961;54.678;9.110;2022-08-21T12:27:43;23.17;;;4.50;;
28822;SDS011;15961;54.678;9.110;2022-08-21T12:30:37;20.42;;;3.90;;
28822;SDS011;15961;54.678;9.110;2022-08-21T12:33:06;27.65;;;3.75;;
28822;SDS011;15961;54.678;9.110;2022-08-21T12:35:43;15.88;;;3.38;;
28822;SDS011;15961;54.678;9.110;2022-08-21T12:38:12;15.70;;;3.50;;
28822;SDS011;15961;54.678;9.110;2022-08-21T12:40:52;17.63;;;3.92;;
28822;SDS011;15961;54.678;9.110;2022-08-21T12:43:33;20.98;;;3.92;;
28822;SDS011;15961;54.678;9.110;2022-08-21T12:46:00;15.73;;;3.50;;
28822;SDS011;15961;54.678;9.110;2022-08-21T12:48:31;24.08;;;4.45;;
28822;SDS011;15961;54.678;9.110;2022-08-21T12:51:06;13.27;;;3.00;;
28822;SDS011;15961;54.678;9.110;2022-08-21T12:53:56;21.67;;;4.30;;
28822;SDS011;15961;54.678;9.110;2022-08-21T12:56:24;28.70;;;4.65;;
28822;SDS011;15961;54.678;9.110;2022-08-21T12:58:55;20.23;;;3.90;;
28822;SDS011;15961;54.678;9.110;2022-08-21T13:04:04;19.75;;;3.60;;
28822;SDS011;15961;54.678;9.110;2022-08-21T13:06:38;18.23;;;3.83;;
28822;SDS011;15961;54.678;9.110;2022-08-21T13:11:37;15.98;;;3.97;;
28822;SDS011;15961;54.678;9.110;2022-08-21T13:14:05;17.10;;;4.05;;
28822;SDS011;15961;54.678;9.110;2022-08-21T13:16:38;24.70;;;3.95;;
28822;SDS011;15961;54.678;9.110;2022-08-21T13:19:05;21.55;;;4.25;;
28822;SDS011;15961;54.678;9.110;2022-08-21T13:21:40;9.88;;;3.58;;
28822;SDS011;15961;54.678;9.110;2022-08-21T13:26:35;23.90;;;3.95;;
28822;SDS011;15961;54.678;9.110;2022-08-21T13:29:11;14.07;;;3.22;;
28822;SDS011;15961;54.678;9.110;2022-08-21T13:31:40;17.33;;;3.45;;
28822;SDS011;15961;54.678;9.110;2022-08-21T13:34:07;16.77;;;4.03;;
28822;SDS011;15961;54.678;9.110;2022-08-21T13:36:36;25.25;;;4.00;;
28822;SDS011;15961;54.678;9.110;2022-08-21T13:39:09;16.75;;;4.10;;
28822;SDS011;15961;54.678;9.110;2022-08-21T13:41:38;19.00;;;4.03;;
28822;SDS011;15961;54.678;9.110;2022-08-21T13:44:14;16.30;;;3.25;;
28822;SDS011;15961;54.678;9.110;2022-08-21T13:49:12;15.13;;;3.42;;
28822;SDS011;15961;54.678;9.110;2022-08-21T13:51:40;13.00;;;3.28;;
28822;SDS011;15961;54.678;9.110;2022-08-21T13:56:45;18.25;;;3.95;;
28822;SDS011;15961;54.678;9.110;2022-08-21T13:59:12;21.00;;;4.47;;
28822;SDS011;15961;54.678;9.110;2022-08-21T14:04:33;12.93;;;3.20;;
28822;SDS011;15961;54.678;9.110;2022-08-21T14:07:01;16.45;;;3.40;;
28822;SDS011;15961;54.678;9.110;2022-08-21T14:09:42;20.98;;;3.90;;
28822;SDS011;15961;54.678;9.110;2022-08-21T14:12:26;23.40;;;3.47;;
28822;SDS011;15961;54.678;9.110;2022-08-21T14:14:57;17.23;;;3.53;;
28822;SDS011;15961;54.678;9.110;2022-08-21T14:17:33;17.45;;;3.15;;
28822;SDS011;15961;54.678;9.110;2022-08-21T14:20:02;13.27;;;3.53;;
28822;SDS011;15961;54.678;9.110;2022-08-21T14:22:40;16.70;;;3.47;;
28822;SDS011;15961;54.678;9.110;2022-08-21T14:27:52;20.83;;;4.03;;
28822;SDS011;15961;54.678;9.110;2022-08-21T14:32:54;22.83;;;4.20;;
28822;SDS011;15961;54.678;9.110;2022-08-21T14:35:20;17.42;;;3.97;;
28822;SDS011;15961;54.678;9.110;2022-08-21T14:37:46;41.63;;;5.03;;
28822;SDS011;15961;54.678;9.110;2022-08-21T14:40:15;17.05;;;3.78;;
28822;SDS011;15961;54.678;9.110;2022-08-21T14:42:42;17.42;;;3.75;;
28822;SDS011;15961;54.678;9.110;2022-08-21T14:45:18;11.80;;;3.13;;
28822;SDS011;15961;54.678;9.110;2022-08-21T14:47:50;12.95;;;3.33;;
28822;SDS011;15961;54.678;9.110;2022-08-21T14:50:16;27.25;;;4.25;;
28822;SDS011;15961;54.678;9.110;2022-08-21T14:52:41;33.05;;;3.63;;
28822;SDS011;15961;54.678;9.110;2022-08-21T14:55:09;14.88;;;2.75;;
28822;SDS011;15961;54.678;9.110;2022-08-21T14:57:38;12.82;;;3.08;;
28822;SDS011;15961;54.678;9.110;2022-08-21T15:00:06;13.13;;;2.72;;
28822;SDS011;15961;54.678;9.110;2022-08-21T15:02:34;20.50;;;3.13;;
28822;SDS011;15961;54.678;9.110;2022-08-21T15:04:59;17.30;;;3.80;;
28822;SDS011;15961;54.678;9.110;2022-08-21T15:07:25;14.40;;;2.75;;
28822;SDS011;15961;54.678;9.110;2022-08-21T15:09:50;33.42;;;3.88;;
28822;SDS011;15961;54.678;9.110;2022-08-21T15:12:16;10.73;;;3.15;;
28822;SDS011;15961;54.678;9.110;2022-08-21T15:14:42;14.85;;;3.60;;
28822;SDS011;15961;54.678;9.110;2022-08-21T15:17:08;12.15;;;2.65;;
28822;SDS011;15961;54.678;9.110;2022-08-21T15:19:35;14.77;;;2.90;;
28822;SDS011;15961;54.678;9.110;2022-08-21T15:22:01;14.85;;;3.55;;
28822;SDS011;15961;54.678;9.110;2022-08-21T15:24:27;22.65;;;4.10;;
28822;SDS011;15961;54.678;9.110;2022-08-21T15:26:53;20.88;;;4.32;;
28822;SDS011;15961;54.678;9.110;2022-08-21T15:29:19;12.60;;;3.40;;
28822;SDS011;15961;54.678;9.110;2022-08-21T15:31:54;21.95;;;4.95;;
28822;SDS011;15961;54.678;9.110;2022-08-21T15:34:22;15.10;;;3.47;;
28822;SDS011;15961;54.678;9.110;2022-08-21T15:36:48;30.55;;;4.63;;
28822;SDS011;15961;54.678;9.110;2022-08-21T15:39:14;18.80;;;4.10;;
28822;SDS011;15961;54.678;9.110;2022-08-21T15:41:40;16.00;;;3.15;;
28822;SDS011;15961;54.678;9.110;2022-08-21T15:44:05;12.65;;;2.85;;
28822;SDS011;15961;54.678;9.110;2022-08-21T15:46:33;10.13;;;2.53;;
28822;SDS011;15961;54.678;9.110;2022-08-21T15:48:58;13.02;;;2.42;;
28822;SDS011;15961;54.678;9.110;2022-08-21T15:51:24;13.38;;;2.85;;
28822;SDS011;15961;54.678;9.110;2022-08-21T15:53:50;9.88;;;3.10;;
28822;SDS011;15961;54.678;9.110;2022-08-21T15:56:22;11.40;;;2.78;;
28822;SDS011;15961;54.678;9.110;2022-08-21T15:58:52;14.50;;;2.60;;
28822;SDS011;15961;54.678;9.110;2022-08-21T16:01:22;16.45;;;3.22;;
28822;SDS011;15961;54.678;9.110;2022-08-21T16:03:49;16.55;;;3.10;;
28822;SDS011;15961;54.678;9.110;2022-08-21T16:06:17;14.43;;;3.70;;
28822;SDS011;15961;54.678;9.110;2022-08-21T16:08:43;22.40;;;3.10;;
28822;SDS011;15961;54.678;9.110;2022-08-21T16:11:09;14.63;;;2.75;;
28822;SDS011;15961;54.678;9.110;2022-08-21T16:13:39;15.75;;;2.92;;
28822;SDS011;15961;54.678;9.110;2022-08-21T16:16:07;21.27;;;4.03;;
28822;SDS011;15961;54.678;9.110;2022-08-21T16:18:35;13.15;;;3.28;;